createdAt,value
2023-03-17T00:00:33.618Z,67.99
2023-03-17T00:01:33.589Z,67.99
2023-03-17T00:02:33.596Z,68.09
2023-03-17T00:03:33.610Z,67.99
2023-03-17T00:04:33.577Z,67.99
2023-03-17T00:05:33.554Z,68.09
2023-03-17T00:06:33.528Z,68.19
2023-03-17T00:07:33.507Z,67.99
2023-03-17T00:08:33.543Z,68.09
2023-03-17T00:09:33.479Z,67.99
2023-03-17T00:10:33.513Z,67.88
2023-03-17T00:11:33.472Z,67.88
2023-03-17T00:12:33.490Z,67.99
2023-03-17T00:13:33.426Z,67.99
2023-03-17T00:14:33.484Z,67.88
2023-03-17T00:15:33.445Z,67.88
2023-03-17T00:16:34.883Z,67.88
2023-03-17T00:17:33.410Z,67.99
2023-03-17T00:18:33.468Z,67.78
2023-03-17T00:19:33.357Z,67.88
2023-03-17T00:20:33.396Z,67.88
2023-03-17T00:21:33.359Z,67.78
2023-03-17T00:22:33.363Z,67.78
2023-03-17T00:23:33.572Z,67.88
2023-03-17T00:24:33.370Z,67.88
2023-03-17T00:25:33.298Z,67.78
2023-03-17T00:26:33.314Z,67.68
2023-03-17T00:27:33.283Z,67.78
2023-03-17T00:28:33.321Z,67.88
2023-03-17T00:29:33.263Z,67.88
2023-03-17T00:30:33.299Z,67.88
2023-03-17T00:31:33.258Z,67.78
2023-03-17T00:32:33.277Z,67.78
2023-03-17T00:33:33.326Z,67.78
2023-03-17T00:34:33.523Z,67.88
2023-03-17T00:35:33.274Z,67.88
2023-03-17T00:36:33.253Z,67.78
2023-03-17T00:37:33.170Z,67.88
2023-03-17T00:38:33.186Z,67.78
2023-03-17T00:39:33.154Z,67.88
2023-03-17T00:40:33.192Z,67.88
2023-03-17T00:41:33.202Z,67.88
2023-03-17T00:42:33.130Z,67.99
2023-03-17T00:43:33.113Z,67.99
2023-03-17T00:44:33.134Z,67.88
2023-03-17T00:45:33.176Z,67.78
2023-03-17T00:46:34.633Z,67.88
2023-03-17T00:47:33.033Z,68.09
2023-03-17T00:48:33.060Z,68.19
2023-03-17T00:49:33.060Z,68.19
2023-03-17T00:50:33.042Z,68.19
2023-03-17T00:51:33.024Z,68.30
2023-03-17T00:52:33.016Z,68.30
2023-03-17T00:53:33.029Z,68.40
2023-03-17T00:54:32.962Z,68.30
2023-03-17T00:55:33.021Z,68.33
2023-03-17T00:56:32.975Z,68.43
2023-03-17T00:57:32.981Z,68.43
2023-03-17T00:58:32.931Z,68.43
2023-03-17T00:59:32.956Z,68.54
2023-03-17T01:00:33.332Z,68.54
2023-03-17T01:01:32.926Z,68.54
2023-03-17T01:02:32.919Z,68.43
2023-03-17T01:03:32.893Z,68.54
2023-03-17T01:04:32.910Z,68.51
2023-03-17T01:05:32.889Z,68.43
2023-03-17T01:06:32.835Z,68.54
2023-03-17T01:07:32.855Z,68.54
2023-03-17T01:08:32.808Z,68.64
2023-03-17T01:09:32.818Z,68.74
2023-03-17T01:10:32.819Z,68.74
2023-03-17T01:11:32.825Z,68.85
2023-03-17T01:12:32.770Z,68.74
2023-03-17T01:13:32.778Z,68.71
2023-03-17T01:14:32.810Z,68.64
2023-03-17T01:15:32.804Z,68.51
2023-03-17T01:16:32.800Z,68.61
2023-03-17T01:17:32.800Z,68.71
2023-03-17T01:18:32.799Z,68.61
2023-03-17T01:19:32.727Z,68.51
2023-03-17T01:20:32.696Z,68.51
2023-03-17T01:21:32.899Z,68.51
2023-03-17T01:22:32.781Z,68.61
2023-03-17T01:23:32.693Z,68.82
2023-03-17T01:24:32.679Z,68.82
2023-03-17T01:25:32.655Z,68.71
2023-03-17T01:26:32.620Z,68.71
2023-03-17T01:27:32.614Z,68.71
2023-03-17T01:28:32.595Z,68.64
2023-03-17T01:29:32.623Z,68.74
2023-03-17T01:30:32.756Z,68.85
2023-03-17T01:31:32.602Z,68.95
2023-03-17T01:32:32.570Z,68.82
2023-03-17T01:33:32.602Z,68.92
2023-03-17T01:34:32.540Z,68.82
2023-03-17T01:35:32.578Z,68.61
2023-03-17T01:36:32.495Z,68.61
2023-03-17T01:37:32.584Z,68.61
2023-03-17T01:38:32.558Z,68.61
2023-03-17T01:39:32.494Z,68.51
2023-03-17T01:40:32.950Z,68.40
2023-03-17T01:41:32.657Z,68.30
2023-03-17T01:42:32.469Z,68.19
2023-03-17T01:43:32.448Z,68.30
2023-03-17T01:44:32.425Z,68.30
2023-03-17T01:45:32.710Z,68.30
2023-03-17T01:46:32.482Z,68.30
2023-03-17T01:47:32.416Z,68.30
2023-03-17T01:48:32.373Z,68.19
2023-03-17T01:49:32.388Z,68.30
2023-03-17T01:50:32.371Z,68.30
2023-03-17T01:51:32.414Z,68.30
2023-03-17T01:52:32.338Z,68.40
2023-03-17T01:53:32.362Z,68.51
2023-03-17T01:54:32.331Z,68.51
2023-03-17T01:55:32.322Z,68.51
2023-03-17T01:56:32.304Z,68.19
2023-03-17T01:57:32.281Z,68.30
2023-03-17T01:58:32.260Z,68.51
2023-03-17T01:59:32.351Z,68.61
2023-03-17T02:00:41.497Z,68.51
2023-03-17T02:01:32.245Z,68.51
2023-03-17T02:02:32.216Z,68.71
2023-03-17T02:03:32.210Z,68.71
2023-03-17T02:04:32.319Z,68.71
2023-03-17T02:05:32.227Z,68.71
2023-03-17T02:06:32.179Z,68.71
2023-03-17T02:07:32.218Z,68.51
2023-03-17T02:08:32.145Z,68.51
2023-03-17T02:09:32.172Z,68.61
2023-03-17T02:10:32.556Z,68.51
2023-03-17T02:11:32.170Z,68.61
2023-03-17T02:12:32.119Z,68.61
2023-03-17T02:13:32.141Z,68.71
2023-03-17T02:14:32.088Z,68.82
2023-03-17T02:15:32.102Z,68.92
2023-03-17T02:16:32.109Z,68.92
2023-03-17T02:17:32.088Z,68.82
2023-03-17T02:18:32.032Z,68.92
2023-03-17T02:19:32.080Z,68.92
2023-03-17T02:20:32.519Z,68.92
2023-03-17T02:21:32.024Z,69.02
2023-03-17T02:22:32.003Z,69.02
2023-03-17T02:23:31.994Z,69.12
2023-03-17T02:24:31.967Z,69.02
2023-03-17T02:25:32.006Z,68.92
2023-03-17T02:26:31.944Z,68.92
2023-03-17T02:27:31.959Z,68.82
2023-03-17T02:28:31.931Z,68.71
2023-03-17T02:29:31.933Z,68.71
2023-03-17T02:30:32.163Z,68.82
2023-03-17T02:31:31.907Z,68.82
2023-03-17T02:32:31.914Z,68.92
2023-03-17T02:33:31.925Z,68.92
2023-03-17T02:34:31.852Z,68.82
2023-03-17T02:35:31.998Z,68.71
2023-03-17T02:36:31.905Z,68.71
2023-03-17T02:37:31.853Z,68.61
2023-03-17T02:38:31.824Z,68.61
2023-03-17T02:39:31.846Z,68.71
2023-03-17T02:40:32.151Z,68.71
2023-03-17T02:41:31.801Z,68.82
2023-03-17T02:42:31.753Z,68.82
2023-03-17T02:43:31.808Z,68.82
2023-03-17T02:44:31.782Z,68.71
2023-03-17T02:45:31.773Z,68.82
2023-03-17T02:46:31.738Z,68.71
2023-03-17T02:47:31.810Z,68.82
2023-03-17T02:48:31.688Z,68.92
2023-03-17T02:49:31.759Z,68.82
2023-03-17T02:50:32.082Z,68.82
2023-03-17T02:51:31.698Z,68.82
2023-03-17T02:52:31.676Z,68.92
2023-03-17T02:53:31.673Z,68.82
2023-03-17T02:54:31.647Z,68.71
2023-03-17T02:55:31.660Z,68.61
2023-03-17T02:56:31.638Z,68.71
2023-03-17T02:57:31.633Z,68.71
2023-03-17T02:58:31.582Z,68.61
2023-03-17T02:59:31.620Z,68.61
2023-03-17T03:00:32.047Z,68.74
2023-03-17T03:01:31.646Z,68.85
2023-03-17T03:02:31.598Z,68.95
2023-03-17T03:03:31.577Z,69.06
2023-03-17T03:04:31.578Z,69.06
2023-03-17T03:05:31.595Z,69.16
2023-03-17T03:06:31.536Z,69.26
2023-03-17T03:07:31.520Z,69.26
2023-03-17T03:08:31.495Z,69.37
2023-03-17T03:09:31.504Z,69.47
2023-03-17T03:10:32.020Z,69.57
2023-03-17T03:11:31.491Z,69.67
2023-03-17T03:12:31.466Z,69.67
2023-03-17T03:13:31.457Z,69.67
2023-03-17T03:14:31.478Z,69.78
2023-03-17T03:15:31.459Z,69.88
2023-03-17T03:16:31.403Z,69.98
2023-03-17T03:17:31.388Z,70.12
2023-03-17T03:18:31.377Z,70.32
2023-03-17T03:19:31.419Z,70.43
2023-03-17T03:20:31.687Z,70.53
2023-03-17T03:21:31.348Z,70.53
2023-03-17T03:22:31.384Z,70.53
2023-03-17T03:23:31.325Z,70.53
2023-03-17T03:24:31.300Z,70.64
2023-03-17T03:25:31.328Z,70.84
2023-03-17T03:26:31.305Z,70.84
2023-03-17T03:27:31.293Z,70.98
2023-03-17T03:28:31.247Z,71.08
2023-03-17T03:29:31.279Z,71.29
2023-03-17T03:30:31.570Z,71.39
2023-03-17T03:31:31.294Z,71.50
2023-03-17T03:32:31.227Z,71.60
2023-03-17T03:33:31.238Z,71.60
2023-03-17T03:34:31.191Z,71.60
2023-03-17T03:35:31.301Z,71.50
2023-03-17T03:36:31.201Z,71.50
2023-03-17T03:37:31.191Z,71.39
2023-03-17T03:38:31.149Z,71.39
2023-03-17T03:39:31.192Z,71.39
2023-03-17T03:40:31.642Z,71.39
2023-03-17T03:41:31.130Z,71.39
2023-03-17T03:42:31.096Z,71.39
2023-03-17T03:43:31.109Z,71.39
2023-03-17T03:44:31.091Z,71.50
2023-03-17T03:45:31.120Z,71.60
2023-03-17T03:46:31.190Z,71.70
2023-03-17T03:47:31.074Z,71.81
2023-03-17T03:48:31.040Z,71.91
2023-03-17T03:49:31.044Z,71.94
2023-03-17T03:50:31.313Z,71.94
2023-03-17T03:51:31.036Z,72.15
2023-03-17T03:52:30.991Z,72.25
2023-03-17T03:53:31.013Z,72.15
2023-03-17T03:54:30.955Z,72.15
2023-03-17T03:55:30.989Z,72.15
2023-03-17T03:56:30.963Z,72.15
2023-03-17T03:57:30.992Z,72.05
2023-03-17T03:58:30.917Z,72.05
2023-03-17T03:59:30.942Z,72.05
2023-03-17T04:00:31.191Z,72.15
2023-03-17T04:01:31.391Z,72.25
2023-03-17T04:02:30.935Z,72.15
2023-03-17T04:03:30.884Z,71.94
2023-03-17T04:04:30.900Z,71.94
2023-03-17T04:05:30.907Z,71.84
2023-03-17T04:06:30.857Z,71.84
2023-03-17T04:07:30.855Z,71.73
2023-03-17T04:08:30.794Z,71.73
2023-03-17T04:09:30.814Z,71.73
2023-03-17T04:10:30.992Z,71.84
2023-03-17T04:11:30.785Z,71.63
2023-03-17T04:12:30.775Z,71.29
2023-03-17T04:13:30.768Z,71.19
2023-03-17T04:14:31.437Z,71.08
2023-03-17T04:15:30.741Z,71.08
2023-03-17T04:16:30.764Z,70.98
2023-03-17T04:17:30.713Z,70.87
2023-03-17T04:18:30.722Z,70.67
2023-03-17T04:19:30.698Z,70.53
2023-03-17T04:20:30.860Z,70.43
2023-03-17T04:21:30.695Z,70.32
2023-03-17T04:22:30.637Z,70.32
2023-03-17T04:23:30.660Z,70.32
2023-03-17T04:24:30.618Z,70.32
2023-03-17T04:25:30.641Z,70.32
2023-03-17T04:26:30.655Z,70.12
2023-03-17T04:27:30.623Z,70.01
2023-03-17T04:28:30.594Z,70.12
2023-03-17T04:29:30.612Z,70.22
2023-03-17T04:30:30.763Z,70.22
2023-03-17T04:31:30.604Z,70.32
2023-03-17T04:32:30.559Z,70.22
2023-03-17T04:33:30.551Z,70.01
2023-03-17T04:34:30.513Z,70.01
2023-03-17T04:35:30.558Z,70.12
2023-03-17T04:36:30.519Z,70.01
2023-03-17T04:37:32.300Z,70.12
2023-03-17T04:38:30.461Z,70.32
2023-03-17T04:39:30.473Z,70.32
2023-03-17T04:40:30.688Z,70.32
2023-03-17T04:41:30.487Z,70.32
2023-03-17T04:42:30.421Z,70.32
2023-03-17T04:43:30.445Z,70.43
2023-03-17T04:44:30.397Z,70.43
2023-03-17T04:45:30.437Z,70.53
2023-03-17T04:46:30.393Z,70.43
2023-03-17T04:47:30.390Z,70.43
2023-03-17T04:48:30.343Z,70.32
2023-03-17T04:49:30.387Z,70.43
2023-03-17T04:50:30.649Z,70.53
2023-03-17T04:51:30.366Z,70.64
2023-03-17T04:52:30.294Z,70.67
2023-03-17T04:53:30.316Z,70.67
2023-03-17T04:54:30.316Z,70.67
2023-03-17T04:55:30.296Z,70.67
2023-03-17T04:56:31.860Z,70.67
2023-03-17T04:57:30.290Z,70.67
2023-03-17T04:58:31.319Z,70.67
2023-03-17T04:59:30.268Z,70.67
2023-03-17T05:00:30.512Z,70.67
2023-03-17T05:01:30.227Z,70.67
2023-03-17T05:02:30.269Z,70.67
2023-03-17T05:03:30.209Z,70.87
2023-03-17T05:04:32.058Z,70.98
2023-03-17T05:05:30.177Z,71.08
2023-03-17T05:06:30.188Z,71.08
2023-03-17T05:07:32.683Z,71.19
2023-03-17T05:08:30.164Z,71.19
2023-03-17T05:09:30.109Z,71.19
2023-03-17T05:10:30.391Z,71.29
2023-03-17T05:11:30.129Z,71.43
2023-03-17T05:12:30.117Z,71.43
2023-03-17T05:13:30.079Z,71.63
2023-03-17T05:14:30.158Z,71.84
2023-03-17T05:15:30.052Z,71.94
2023-03-17T05:16:30.089Z,72.15
2023-03-17T05:17:30.021Z,72.50
2023-03-17T05:18:30.054Z,72.60
2023-03-17T05:19:30.026Z,72.71
2023-03-17T05:20:30.218Z,72.81
2023-03-17T05:21:29.984Z,72.81
2023-03-17T05:22:30.005Z,72.81
2023-03-17T05:23:29.977Z,72.81
2023-03-17T05:24:29.970Z,72.94
2023-03-17T05:25:29.947Z,72.94
2023-03-17T05:26:29.974Z,72.94
2023-03-17T05:27:29.948Z,72.84
2023-03-17T05:28:29.943Z,72.94
2023-03-17T05:29:29.902Z,72.94
2023-03-17T05:30:30.309Z,72.94
2023-03-17T05:31:29.899Z,73.15
2023-03-17T05:32:29.921Z,73.25
2023-03-17T05:33:29.861Z,73.36
2023-03-17T05:34:29.869Z,73.57
2023-03-17T05:35:29.854Z,73.57
2023-03-17T05:36:29.848Z,73.67
2023-03-17T05:37:29.843Z,73.67
2023-03-17T05:38:29.826Z,73.67
2023-03-17T05:39:29.801Z,73.88
2023-03-17T05:40:30.081Z,74.08
2023-03-17T05:41:29.772Z,74.08
2023-03-17T05:42:29.784Z,74.11
2023-03-17T05:43:29.759Z,73.98
2023-03-17T05:44:29.785Z,73.88
2023-03-17T05:45:29.715Z,73.88
2023-03-17T05:46:29.788Z,73.67
2023-03-17T05:47:29.712Z,73.67
2023-03-17T05:48:29.708Z,73.67
2023-03-17T05:49:29.723Z,73.67
2023-03-17T05:50:30.135Z,73.67
2023-03-17T05:51:29.710Z,73.77
2023-03-17T05:52:29.687Z,73.77
2023-03-17T05:53:30.611Z,73.77
2023-03-17T05:54:29.641Z,73.77
2023-03-17T05:55:29.614Z,73.77
2023-03-17T05:56:29.674Z,73.77
2023-03-17T05:57:29.603Z,73.77
2023-03-17T05:58:29.613Z,73.77
2023-03-17T05:59:29.556Z,73.77
2023-03-17T06:00:29.927Z,73.77
2023-03-17T06:01:29.602Z,73.77
2023-03-17T06:02:29.627Z,73.77
2023-03-17T06:03:29.547Z,73.67
2023-03-17T06:04:29.563Z,73.46
2023-03-17T06:05:29.575Z,73.36
2023-03-17T06:06:29.508Z,73.22
2023-03-17T06:07:41.332Z,72.91
2023-03-17T06:08:30.515Z,72.81
2023-03-17T06:09:29.451Z,72.71
2023-03-17T06:10:29.835Z,72.39
2023-03-17T06:11:29.438Z,72.15
2023-03-17T06:12:29.455Z,72.15
2023-03-17T06:13:29.410Z,71.94
2023-03-17T06:14:29.457Z,71.94
2023-03-17T06:15:29.799Z,72.05
2023-03-17T06:16:29.402Z,71.81
2023-03-17T06:17:29.368Z,71.70
2023-03-17T06:18:29.387Z,71.60
2023-03-17T06:19:29.391Z,71.50
2023-03-17T06:20:29.375Z,71.50
2023-03-17T06:21:29.324Z,71.19
2023-03-17T06:22:29.350Z,71.08
2023-03-17T06:23:30.080Z,71.19
2023-03-17T06:24:29.331Z,71.08
2023-03-17T06:25:29.711Z,70.95
2023-03-17T06:26:29.284Z,70.74
2023-03-17T06:27:29.258Z,70.53
2023-03-17T06:28:29.260Z,70.43
2023-03-17T06:29:29.240Z,70.53
2023-03-17T06:30:29.312Z,70.43
2023-03-17T06:31:29.341Z,70.40
2023-03-17T06:32:29.270Z,70.50
2023-03-17T06:33:29.190Z,70.19
2023-03-17T06:34:29.226Z,70.09
2023-03-17T06:35:29.477Z,69.88
2023-03-17T06:36:29.193Z,69.88
2023-03-17T06:37:29.127Z,69.88
2023-03-17T06:38:29.148Z,69.67
2023-03-17T06:39:29.112Z,69.54
2023-03-17T06:40:29.125Z,69.54
2023-03-17T06:41:29.136Z,69.43
2023-03-17T06:42:29.097Z,69.64
2023-03-17T06:43:29.105Z,69.95
2023-03-17T06:44:29.075Z,69.61
2023-03-17T06:45:29.351Z,69.51
2023-03-17T06:46:29.123Z,69.40
2023-03-17T06:47:29.058Z,69.20
2023-03-17T06:48:30.021Z,68.99
2023-03-17T06:49:30.243Z,68.78
2023-03-17T06:50:30.217Z,68.78
2023-03-17T06:51:29.786Z,68.68
2023-03-17T06:52:29.030Z,68.54
2023-03-17T06:53:29.023Z,68.44
2023-03-17T06:54:29.097Z,68.34
2023-03-17T06:55:29.612Z,68.24
2023-03-17T06:56:30.667Z,68.03
2023-03-17T06:57:29.366Z,68.13
2023-03-17T06:58:28.949Z,68.13
2023-03-17T06:59:28.930Z,68.13
2023-03-17T07:00:28.923Z,68.13
2023-03-17T07:01:29.689Z,68.10
2023-03-17T07:02:28.932Z,68.21
2023-03-17T07:03:30.311Z,68.00
2023-03-17T07:04:29.599Z,68.10
2023-03-17T07:05:30.327Z,67.90
2023-03-17T07:06:29.396Z,67.90
2023-03-17T07:07:29.992Z,67.79
2023-03-17T07:08:28.857Z,67.45
2023-03-17T07:09:28.784Z,67.66
2023-03-17T07:10:30.144Z,67.35
2023-03-17T07:11:29.565Z,67.32
2023-03-17T07:12:30.955Z,67.11
2023-03-17T07:13:29.277Z,66.91
2023-03-17T07:14:28.765Z,66.70
2023-03-17T07:15:30.498Z,66.25
2023-03-17T07:16:29.135Z,66.36
2023-03-17T07:17:28.691Z,65.84
2023-03-17T07:18:28.813Z,65.64
2023-03-17T07:19:30.176Z,65.33
2023-03-17T07:20:28.725Z,65.22
2023-03-17T07:21:28.709Z,65.19
2023-03-17T07:22:28.669Z,64.89
2023-03-17T07:23:28.625Z,65.09
2023-03-17T07:24:28.646Z,64.96
2023-03-17T07:25:28.967Z,64.86
2023-03-17T07:26:28.663Z,64.65
2023-03-17T07:27:28.622Z,64.75
2023-03-17T07:28:28.587Z,64.51
2023-03-17T07:29:28.554Z,64.51
2023-03-17T07:30:28.602Z,64.83
2023-03-17T07:31:28.727Z,64.21
2023-03-17T07:32:28.610Z,64.21
2023-03-17T07:33:28.557Z,64.07
2023-03-17T07:34:28.540Z,63.76
2023-03-17T07:35:28.535Z,63.76
2023-03-17T07:36:28.525Z,63.79
2023-03-17T07:37:28.477Z,63.76
2023-03-17T07:38:28.500Z,63.76
2023-03-17T07:39:28.464Z,63.56
2023-03-17T07:40:28.501Z,63.46
2023-03-17T07:41:28.454Z,63.35
2023-03-17T07:42:28.432Z,63.53
2023-03-17T07:43:28.389Z,63.53
2023-03-17T07:44:28.399Z,63.12
2023-03-17T07:45:28.624Z,62.81
2023-03-17T07:46:28.441Z,62.40
2023-03-17T07:47:28.393Z,62.58
2023-03-17T07:48:28.368Z,62.37
2023-03-17T07:49:40.767Z,62.48
2023-03-17T07:50:29.461Z,62.16
2023-03-17T07:51:28.364Z,61.96
2023-03-17T07:52:28.340Z,61.83
2023-03-17T07:53:28.303Z,62.04
2023-03-17T07:54:28.304Z,62.24
2023-03-17T07:55:28.272Z,62.04
2023-03-17T07:56:28.272Z,62.21
2023-03-17T07:57:28.307Z,61.70
2023-03-17T07:58:28.248Z,61.39
2023-03-17T07:59:28.207Z,61.70
2023-03-17T08:00:28.231Z,61.70
2023-03-17T08:01:28.213Z,61.29
2023-03-17T08:02:28.252Z,60.98
2023-03-17T08:03:28.230Z,61.08
2023-03-17T08:04:28.236Z,61.29
2023-03-17T08:05:28.178Z,61.39
2023-03-17T08:06:28.153Z,61.26
2023-03-17T08:07:28.127Z,60.95
2023-03-17T08:08:28.180Z,60.95
2023-03-17T08:09:28.104Z,60.95
2023-03-17T08:10:28.115Z,61.05
2023-03-17T08:11:29.466Z,60.85
2023-03-17T08:12:28.090Z,60.82
2023-03-17T08:13:28.085Z,60.72
2023-03-17T08:14:28.079Z,60.41
2023-03-17T08:15:28.082Z,60.21
2023-03-17T08:16:28.092Z,60.31
2023-03-17T08:17:28.040Z,60.28
2023-03-17T08:18:28.023Z,60.28
2023-03-17T08:19:28.044Z,60.07
2023-03-17T08:20:28.012Z,60.17
2023-03-17T08:21:28.026Z,60.58
2023-03-17T08:22:27.986Z,60.89
2023-03-17T08:23:27.951Z,60.49
2023-03-17T08:24:27.943Z,60.76
2023-03-17T08:25:27.944Z,59.94
2023-03-17T08:26:27.971Z,59.74
2023-03-17T08:27:27.920Z,59.12
2023-03-17T08:28:28.002Z,59.23
2023-03-17T08:29:27.988Z,59.02
2023-03-17T08:30:32.818Z,59.23
2023-03-17T08:31:27.969Z,59.43
2023-03-17T08:32:27.959Z,59.02
2023-03-17T08:33:27.859Z,58.92
2023-03-17T08:34:27.883Z,58.40
2023-03-17T08:35:27.864Z,58.61
2023-03-17T08:36:27.816Z,58.40
2023-03-17T08:37:27.789Z,58.48
2023-03-17T08:38:27.818Z,58.69
2023-03-17T08:39:27.797Z,58.79
2023-03-17T08:40:27.985Z,58.38
2023-03-17T08:41:27.753Z,58.48
2023-03-17T08:42:27.764Z,58.48
2023-03-17T08:43:27.747Z,58.17
2023-03-17T08:44:27.768Z,58.48
2023-03-17T08:45:27.723Z,58.38
2023-03-17T08:46:27.730Z,58.48
2023-03-17T08:47:27.705Z,58.48
2023-03-17T08:48:27.713Z,57.87
2023-03-17T08:49:27.682Z,58.07
2023-03-17T08:50:27.783Z,58.28
2023-03-17T08:51:27.630Z,58.28
2023-03-17T08:52:27.648Z,58.38
2023-03-17T08:53:27.612Z,58.56
2023-03-17T08:54:27.644Z,58.66
2023-03-17T08:55:27.631Z,58.25
2023-03-17T08:56:27.612Z,57.94
2023-03-17T08:57:27.582Z,57.64
2023-03-17T08:58:27.582Z,57.53
2023-03-17T08:59:27.545Z,57.74
2023-03-17T09:00:27.610Z,58.04
2023-03-17T09:01:27.702Z,58.12
2023-03-17T09:02:27.632Z,58.02
2023-03-17T09:03:27.519Z,58.02
2023-03-17T09:04:27.528Z,58.12
2023-03-17T09:05:27.475Z,57.71
2023-03-17T09:06:27.552Z,57.71
2023-03-17T09:07:27.489Z,57.51
2023-03-17T09:08:27.496Z,57.71
2023-03-17T09:09:27.437Z,57.79
2023-03-17T09:10:28.237Z,57.89
2023-03-17T09:11:27.431Z,57.68
2023-03-17T09:12:27.448Z,57.48
2023-03-17T09:13:27.489Z,57.17
2023-03-17T09:14:27.436Z,57.07
2023-03-17T09:15:27.419Z,57.07
2023-03-17T09:16:27.422Z,57.28
2023-03-17T09:17:27.391Z,57.28
2023-03-17T09:18:27.350Z,56.87
2023-03-17T09:19:27.353Z,56.74
2023-03-17T09:20:27.315Z,57.04
2023-03-17T09:21:27.377Z,56.94
2023-03-17T09:22:27.358Z,57.04
2023-03-17T09:23:27.430Z,56.92
2023-03-17T09:24:27.279Z,56.51
2023-03-17T09:25:27.313Z,56.51
2023-03-17T09:26:27.243Z,56.20
2023-03-17T09:27:27.281Z,56.27
2023-03-17T09:28:27.255Z,56.17
2023-03-17T09:29:27.276Z,56.38
2023-03-17T09:30:27.196Z,55.87
2023-03-17T09:31:27.258Z,55.63
2023-03-17T09:32:27.244Z,55.74
2023-03-17T09:33:27.281Z,55.63
2023-03-17T09:34:27.178Z,55.54
2023-03-17T09:35:27.173Z,55.74
2023-03-17T09:36:27.116Z,55.82
2023-03-17T09:37:27.167Z,55.82
2023-03-17T09:38:27.122Z,55.30
2023-03-17T09:39:27.126Z,55.20
2023-03-17T09:40:28.538Z,55.41
2023-03-17T09:41:27.131Z,55.10
2023-03-17T09:42:27.065Z,54.97
2023-03-17T09:43:27.079Z,54.77
2023-03-17T09:44:27.083Z,54.97
2023-03-17T09:45:27.071Z,54.87
2023-03-17T09:46:27.176Z,55.07
2023-03-17T09:47:27.031Z,54.87
2023-03-17T09:48:26.991Z,55.18
2023-03-17T09:49:27.039Z,54.85
2023-03-17T09:50:26.978Z,54.85
2023-03-17T09:51:26.990Z,54.94
2023-03-17T09:52:26.969Z,55.05
2023-03-17T09:53:27.012Z,55.35
2023-03-17T09:54:26.943Z,55.46
2023-03-17T09:55:26.951Z,55.35
2023-03-17T09:56:26.912Z,55.33
2023-03-17T09:57:26.938Z,55.53
2023-03-17T09:58:26.897Z,55.43
2023-03-17T09:59:26.918Z,54.72
2023-03-17T10:00:26.873Z,54.39
2023-03-17T10:01:26.944Z,54.49
2023-03-17T10:02:26.875Z,54.69
2023-03-17T10:03:26.876Z,55.00
2023-03-17T10:04:26.825Z,55.30
2023-03-17T10:05:26.933Z,55.20
2023-03-17T10:06:26.806Z,55.30
2023-03-17T10:07:26.807Z,55.20
2023-03-17T10:08:31.613Z,54.49
2023-03-17T10:09:27.823Z,54.59
2023-03-17T10:10:26.786Z,54.69
2023-03-17T10:11:26.770Z,54.57
2023-03-17T10:12:26.726Z,54.97
2023-03-17T10:13:26.778Z,54.28
2023-03-17T10:14:26.705Z,54.79
2023-03-17T10:15:26.767Z,54.90
2023-03-17T10:16:26.797Z,55.30
2023-03-17T10:17:26.709Z,54.69
2023-03-17T10:18:26.673Z,54.87
2023-03-17T10:19:26.669Z,55.18
2023-03-17T10:20:26.669Z,54.87
2023-03-17T10:21:26.654Z,54.66
2023-03-17T10:22:26.630Z,54.77
2023-03-17T10:23:26.633Z,54.13
2023-03-17T10:24:26.604Z,54.16
2023-03-17T10:25:26.611Z,54.03
2023-03-17T10:26:26.582Z,54.03
2023-03-17T10:27:26.633Z,54.13
2023-03-17T10:28:26.560Z,54.24
2023-03-17T10:29:27.515Z,53.72
2023-03-17T10:30:26.543Z,53.72
2023-03-17T10:31:26.605Z,53.63
2023-03-17T10:32:26.553Z,53.19
2023-03-17T10:33:26.529Z,52.71
2023-03-17T10:34:26.504Z,52.78
2023-03-17T10:35:26.536Z,53.09
2023-03-17T10:36:26.490Z,53.29
2023-03-17T10:37:26.484Z,53.39
2023-03-17T10:38:26.446Z,53.59
2023-03-17T10:39:26.446Z,53.29
2023-03-17T10:40:26.439Z,52.58
2023-03-17T10:41:26.443Z,52.78
2023-03-17T10:42:26.419Z,52.98
2023-03-17T10:43:26.408Z,52.98
2023-03-17T10:44:26.395Z,52.89
2023-03-17T10:45:26.385Z,52.98
2023-03-17T10:46:26.468Z,52.78
2023-03-17T10:47:26.369Z,52.68
2023-03-17T10:48:26.393Z,52.78
2023-03-17T10:49:26.329Z,52.98
2023-03-17T10:50:26.308Z,52.98
2023-03-17T10:51:26.343Z,53.06
2023-03-17T10:52:26.298Z,53.06
2023-03-17T10:53:26.281Z,52.76
2023-03-17T10:54:26.260Z,52.86
2023-03-17T10:55:26.263Z,53.06
2023-03-17T10:56:26.264Z,52.56
2023-03-17T10:57:27.211Z,52.76
2023-03-17T10:58:26.243Z,52.66
2023-03-17T10:59:26.286Z,52.63
2023-03-17T11:00:26.190Z,52.43
2023-03-17T11:01:26.319Z,52.53
2023-03-17T11:02:26.165Z,52.53
2023-03-17T11:03:26.188Z,52.43
2023-03-17T11:04:26.146Z,52.53
2023-03-17T11:05:26.170Z,52.53
2023-03-17T11:06:26.141Z,52.51
2023-03-17T11:07:26.140Z,52.10
2023-03-17T11:08:26.124Z,51.90
2023-03-17T11:09:26.107Z,51.59
2023-03-17T11:10:26.089Z,51.79
2023-03-17T11:11:26.109Z,52.00
2023-03-17T11:12:26.073Z,52.10
2023-03-17T11:13:26.103Z,52.71
2023-03-17T11:14:26.056Z,52.81
2023-03-17T11:15:26.049Z,52.71
2023-03-17T11:16:26.074Z,52.58
2023-03-17T11:17:26.023Z,52.58
2023-03-17T11:18:26.008Z,52.08
2023-03-17T11:19:26.008Z,51.57
2023-03-17T11:20:25.977Z,50.45
2023-03-17T11:21:25.992Z,49.74
2023-03-17T11:22:25.942Z,49.84
2023-03-17T11:23:25.959Z,49.64
2023-03-17T11:24:25.970Z,49.13
2023-03-17T11:25:25.931Z,49.54
2023-03-17T11:26:25.920Z,48.93
2023-03-17T11:27:25.918Z,49.13
2023-03-17T11:28:25.907Z,48.91
2023-03-17T11:29:25.927Z,49.11
2023-03-17T11:30:25.862Z,48.71
2023-03-17T11:31:25.874Z,48.40
2023-03-17T11:32:25.870Z,48.30
2023-03-17T11:33:25.851Z,48.19
2023-03-17T11:34:25.825Z,48.50
2023-03-17T11:35:25.835Z,48.40
2023-03-17T11:36:25.882Z,48.40
2023-03-17T11:37:25.816Z,47.89
2023-03-17T11:38:25.765Z,47.99
2023-03-17T11:39:25.786Z,47.69
2023-03-17T11:40:25.773Z,47.99
2023-03-17T11:41:25.762Z,48.19
2023-03-17T11:42:25.733Z,48.60
2023-03-17T11:43:25.743Z,48.19
2023-03-17T11:44:25.709Z,47.69
2023-03-17T11:45:25.707Z,48.19
2023-03-17T11:46:25.709Z,48.68
2023-03-17T11:47:25.696Z,48.58
2023-03-17T11:48:25.790Z,47.77
2023-03-17T11:49:25.675Z,47.97
2023-03-17T11:50:25.636Z,48.38
2023-03-17T11:51:25.636Z,48.78
2023-03-17T11:52:25.601Z,48.99
2023-03-17T11:53:25.638Z,48.78
2023-03-17T11:54:25.594Z,48.78
2023-03-17T11:55:25.601Z,49.39
2023-03-17T11:56:25.566Z,49.39
2023-03-17T11:57:25.601Z,49.37
2023-03-17T11:58:25.550Z,49.67
2023-03-17T11:59:25.553Z,49.77
2023-03-17T12:00:25.524Z,49.87
2023-03-17T12:01:25.544Z,50.08
2023-03-17T12:02:25.508Z,50.18
2023-03-17T12:03:25.531Z,50.08
2023-03-17T12:04:25.487Z,50.18
2023-03-17T12:05:25.496Z,49.47
2023-03-17T12:06:25.429Z,49.77
2023-03-17T12:07:25.469Z,49.77
2023-03-17T12:08:25.442Z,49.87
2023-03-17T12:09:25.420Z,49.67
2023-03-17T12:10:25.424Z,49.67
2023-03-17T12:11:25.402Z,49.98
2023-03-17T12:12:25.391Z,50.18
2023-03-17T12:13:25.381Z,50.18
2023-03-17T12:14:25.350Z,49.98
2023-03-17T12:15:25.413Z,50.08
2023-03-17T12:16:25.342Z,49.98
2023-03-17T12:17:26.992Z,49.98
2023-03-17T12:18:25.301Z,49.77
2023-03-17T12:19:25.323Z,49.98
2023-03-17T12:20:25.284Z,50.18
2023-03-17T12:21:25.294Z,49.98
2023-03-17T12:22:25.275Z,50.08
2023-03-17T12:23:25.267Z,49.98
2023-03-17T12:24:25.233Z,50.18
2023-03-17T12:25:25.261Z,50.18
2023-03-17T12:26:25.235Z,50.08
2023-03-17T12:27:25.262Z,50.68
2023-03-17T12:28:25.206Z,50.86
2023-03-17T12:29:25.241Z,50.86
2023-03-17T12:30:25.172Z,50.79
2023-03-17T12:31:25.229Z,50.76
2023-03-17T12:32:25.170Z,50.86
2023-03-17T12:33:25.179Z,50.76
2023-03-17T12:34:26.597Z,50.46
2023-03-17T12:35:25.136Z,50.46
2023-03-17T12:36:25.112Z,51.07
2023-03-17T12:37:25.116Z,50.86
2023-03-17T12:38:25.102Z,50.26
2023-03-17T12:39:25.098Z,50.35
2023-03-17T12:40:26.190Z,50.46
2023-03-17T12:41:25.092Z,49.95
2023-03-17T12:42:25.091Z,50.35
2023-03-17T12:43:25.066Z,50.56
2023-03-17T12:44:25.038Z,50.46
2023-03-17T12:45:25.514Z,50.86
2023-03-17T12:46:25.048Z,50.35
2023-03-17T12:47:25.034Z,50.46
2023-03-17T12:48:24.992Z,50.35
2023-03-17T12:49:24.996Z,50.15
2023-03-17T12:50:24.953Z,49.85
2023-03-17T12:51:24.973Z,49.95
2023-03-17T12:52:24.980Z,50.15